Time;durP1;ratioP1;P1;durP2;ratioP2;P2;SDS_P1;SDS_P2;PMS_P1;PMS_P2;Temp;Humidity;BMP_temperature;BMP_pressure;BME280_temperature;BME280_humidity;BME280_pressure;Samples;Min_cycle;Max_cycle;Signal;HPM_P1;HPM_P2
2022/06/18 00:00:23;;;;;;;;;;;;;;;12.72;100.00;99458.22;5131878;28;20443;-52
2022/06/18 00:02:48;;;;;;;;;;;;;;;12.76;100.00;99457.47;5132012;28;19931;-52
2022/06/18 00:05:17;;;;;;;;;;;;;;;12.69;100.00;99456.25;5132425;28;20507;-53
2022/06/18 00:07:45;;;;;;;;;;;;;;;12.68;100.00;99467.59;5131868;28;19928;-51
2022/06/18 00:10:13;;;;;;;;;;;;;;;12.65;100.00;99473.84;5132159;28;19933;-50
2022/06/18 00:15:25;;;;;;;;;;;;;;;12.51;100.00;99466.19;5132208;28;19977;-49
2022/06/18 00:17:51;;;;;;;;;;;;;;;12.53;100.00;99466.63;5131841;28;19927;-53
2022/06/18 00:20:19;;;;;;;;;;;;;;;12.46;100.00;99477.47;5131995;28;19954;-52
2022/06/18 00:22:46;;;;;;;;;;;;;;;12.36;100.00;99478.09;5131866;28;19939;-49
2022/06/18 00:25:16;;;;;;;;;;;;;;;12.37;100.00;99482.47;5131671;28;19934;-50
2022/06/18 00:27:42;;;;;;;;;;;;;;;12.29;100.00;99486.25;5131621;28;19981;-53
2022/06/18 00:30:10;;;;;;;;;;;;;;;12.33;100.00;99478.84;5131168;27;19931;-53
2022/06/18 00:32:35;;;;;;;;;;;;;;;12.22;100.00;99473.97;5131730;28;19933;-50
2022/06/18 00:35:01;;;;;;;;;;;;;;;12.20;100.00;99470.81;5131410;28;19927;-49
2022/06/18 00:37:28;;;;;;;;;;;;;;;12.20;100.00;99459.81;5131531;28;19928;-50
2022/06/18 00:39:54;;;;;;;;;;;;;;;12.18;100.00;99473.13;5131580;28;19932;-50
2022/06/18 00:42:24;;;;;;;;;;;;;;;12.17;100.00;99473.50;5131464;28;20302;-51
2022/06/18 00:44:54;;;;;;;;;;;;;;;12.12;100.00;99479.31;5131418;28;20405;-50
2022/06/18 00:47:24;;;;;;;;;;;;;;;12.03;100.00;99479.56;5131551;28;19927;-53
2022/06/18 00:49:53;;;;;;;;;;;;;;;12.01;100.00;99481.88;5131362;28;19934;-49
2022/06/18 00:52:23;;;;;;;;;;;;;;;11.93;100.00;99477.44;5131681;28;19931;-52
2022/06/18 00:54:55;;;;;;;;;;;;;;;11.91;100.00;99479.75;5131465;28;19927;-51
2022/06/18 00:57:28;;;;;;;;;;;;;;;11.91;100.00;99475.03;5131158;28;19987;-50
2022/06/18 00:59:56;;;;;;;;;;;;;;;11.83;100.00;99476.06;5131173;28;20402;-49
2022/06/18 01:02:24;;;;;;;;;;;;;;;11.82;100.00;99463.47;5131196;28;20020;-49
2022/06/18 01:04:52;;;;;;;;;;;;;;;11.84;100.00;99468.59;5131139;28;19971;-51
2022/06/18 01:07:24;;;;;;;;;;;;;;;11.80;100.00;99465.78;5131262;28;20016;-53
2022/06/18 01:09:52;;;;;;;;;;;;;;;11.80;100.00;99465.00;5131271;28;19928;-52
2022/06/18 01:12:19;;;;;;;;;;;;;;;11.74;100.00;99470.00;5131421;28;19931;-53
2022/06/18 01:14:45;;;;;;;;;;;;;;;11.68;100.00;99461.25;5131379;28;20248;-51
2022/06/18 01:17:11;;;;;;;;;;;;;;;11.72;100.00;99458.56;5131043;28;20421;-51
2022/06/18 01:19:38;;;;;;;;;;;;;;;11.73;100.00;99443.69;5130918;28;20321;-53
2022/06/18 01:22:10;;;;;;;;;;;;;;;11.66;100.00;99444.38;5130864;28;19927;-50
2022/06/18 01:24:38;;;;;;;;;;;;;;;11.69;100.00;99443.63;5131119;28;19927;-50
2022/06/18 01:27:05;;;;;;;;;;;;;;;11.66;100.00;99449.03;5130966;28;19927;-49
2022/06/18 01:29:31;;;;;;;;;;;;;;;11.63;100.00;99447.84;5130953;28;19927;-50
2022/06/18 01:31:58;;;;;;;;;;;;;;;11.59;100.00;99449.72;5130757;28;19928;-53
2022/06/18 01:34:24;;;;;;;;;;;;;;;11.60;100.00;99445.03;5130932;28;19927;-49
2022/06/18 01:36:50;;;;;;;;;;;;;;;11.56;100.00;99450.44;5130639;28;20025;-53
2022/06/18 01:39:18;;;;;;;;;;;;;;;11.53;100.00;99451.19;5131096;28;20401;-51
2022/06/18 01:41:50;;;;;;;;;;;;;;;11.50;100.00;99452.69;5130840;27;19980;-50
2022/06/18 01:44:19;;;;;;;;;;;;;;;11.54;100.00;99441.78;5134504;28;20321;-50
2022/06/18 01:46:47;;;;;;;;;;;;;;;11.53;100.00;99443.75;5134162;28;19927;-50
2022/06/18 01:49:16;;;;;;;;;;;;;;;11.46;100.00;99440.88;5134178;28;20014;-51
2022/06/18 01:51:44;;;;;;;;;;;;;;;11.48;100.00;99441.28;5133999;28;19927;-52
2022/06/18 01:54:11;;;;;;;;;;;;;;;11.40;100.00;99455.25;5134210;28;19927;-50
2022/06/18 01:56:40;;;;;;;;;;;;;;;11.39;100.00;99450.91;5134234;28;19935;-52
2022/06/18 01:59:10;;;;;;;;;;;;;;;11.42;100.00;99439.19;5134134;28;19928;-50
2022/06/18 02:01:38;;;;;;;;;;;;;;;11.41;100.00;99445.84;5134184;28;20025;-49
2022/06/18 02:04:04;;;;;;;;;;;;;;;11.40;100.00;99449.75;5134031;28;19934;-51
2022/06/18 02:06:32;;;;;;;;;;;;;;;11.38;100.00;99452.06;5134167;28;19934;-50
2022/06/18 02:08:59;;;;;;;;;;;;;;;11.40;100.00;99455.25;5133839;28;19947;-49
2022/06/18 02:11:25;;;;;;;;;;;;;;;11.40;100.00;99456.03;5133845;28;19934;-49
2022/06/18 02:13:54;;;;;;;;;;;;;;;11.40;100.00;99460.75;5133849;28;19927;-52
2022/06/18 02:16:23;;;;;;;;;;;;;;;11.42;100.00;99466.66;5133861;28;19931;-49
2022/06/18 02:18:50;;;;;;;;;;;;;;;11.45;100.00;99452.19;5133896;28;20030;-50
2022/06/18 02:21:17;;;;;;;;;;;;;;;11.60;100.00;99454.06;5133868;28;19927;-49
2022/06/18 02:23:43;;;;;;;;;;;;;;;12.22;100.00;99453.94;5133990;28;19927;-51
2022/06/18 02:26:09;;;;;;;;;;;;;;;12.71;100.00;99491.63;5133987;28;19942;-53
2022/06/18 02:28:36;;;;;;;;;;;;;;;13.28;100.00;99541.16;5133780;28;19928;-52
2022/06/18 02:31:03;;;;;;;;;;;;;;;13.68;100.00;99611.31;5133650;28;19934;-50
2022/06/18 02:33:32;;;;;;;;;;;;;;;14.03;100.00;99702.72;5133594;28;20406;-52
2022/06/18 02:36:00;;;;;;;;;;;;;;;14.42;100.00;99776.84;5133626;28;19931;-53
2022/06/18 02:38:26;;;;;;;;;;;;;;;14.69;100.00;99821.72;5133614;28;19934;-53
2022/06/18 02:40:52;;;;;;;;;;;;;;;15.08;100.00;99832.41;5133818;28;20022;-51
2022/06/18 02:43:20;;;;;;;;;;;;;;;15.33;100.00;99810.56;5133519;28;20007;-53
2022/06/18 02:45:49;;;;;;;;;;;;;;;15.51;100.00;99755.44;5133815;28;19932;-51
2022/06/18 02:48:15;;;;;;;;;;;;;;;15.80;100.00;99689.34;5133341;28;19934;-50
2022/06/18 02:50:42;;;;;;;;;;;;;;;16.01;100.00;99617.50;5133446;28;19927;-52
2022/06/18 02:53:09;;;;;;;;;;;;;;;16.38;100.00;99541.72;5133264;27;19938;-53
2022/06/18 02:55:37;;;;;;;;;;;;;;;16.52;100.00;99486.34;5133324;28;19931;-54
2022/06/18 02:58:05;;;;;;;;;;;;;;;16.71;100.00;99415.94;5133061;28;20455;-53
2022/06/18 03:00:36;;;;;;;;;;;;;;;17.10;100.00;99329.97;5133323;28;19932;-54
2022/06/18 03:03:02;;;;;;;;;;;;;;;17.13;100.00;99242.50;5133139;28;19927;-53
2022/06/18 03:05:28;;;;;;;;;;;;;;;17.34;100.00;99211.84;5133094;28;20388;-51
2022/06/18 03:07:55;;;;;;;;;;;;;;;17.39;100.00;99138.53;5133008;28;19927;-51
2022/06/18 03:13:06;;;;;;;;;;;;;;;18.11;100.00;98952.69;5132927;28;19934;-51
2022/06/18 03:15:32;;;;;;;;;;;;;;;18.09;100.00;98908.72;5133021;28;20397;-53
2022/06/18 03:17:58;;;;;;;;;;;;;;;18.47;100.00;98771.66;5133392;28;19975;-54
2022/06/18 03:20:29;;;;;;;;;;;;;;;18.65;100.00;98785.16;5133117;28;19927;-53
2022/06/18 03:22:55;;;;;;;;;;;;;;;18.77;100.00;98723.47;5133046;28;19950;-53
2022/06/18 03:25:22;;;;;;;;;;;;;;;19.01;100.00;98708.22;5132621;28;19928;-55
2022/06/18 03:27:48;;;;;;;;;;;;;;;19.04;100.00;98689.91;5132930;28;20359;-54
2022/06/18 03:30:14;;;;;;;;;;;;;;;19.44;100.00;98648.03;5132551;28;19928;-52
2022/06/18 03:32:40;;;;;;;;;;;;;;;19.49;100.00;98634.38;5132877;28;20718;-53
2022/06/18 03:35:06;;;;;;;;;;;;;;;19.74;100.00;98625.38;5132721;28;19928;-54
2022/06/18 03:37:32;;;;;;;;;;;;;;;19.77;100.00;98614.59;5132467;28;19928;-55
2022/06/18 03:39:59;;;;;;;;;;;;;;;20.03;100.00;98552.22;5132573;28;19959;-56
2022/06/18 03:42:25;;;;;;;;;;;;;;;20.30;100.00;98506.47;5132422;28;20404;-54
2022/06/18 03:44:51;;;;;;;;;;;;;;;20.50;100.00;98476.38;5132561;28;19927;-54
2022/06/18 03:47:17;;;;;;;;;;;;;;;20.47;100.00;98491.19;5132367;28;19934;-55
2022/06/18 03:49:43;;;;;;;;;;;;;;;20.87;100.00;98438.53;5132502;28;19927;-56
2022/06/18 03:52:09;;;;;;;;;;;;;;;21.06;100.00;98397.66;5132113;28;19931;-55
2022/06/18 03:54:35;;;;;;;;;;;;;;;21.35;100.00;98363.16;5132481;28;20382;-54
2022/06/18 03:57:02;;;;;;;;;;;;;;;21.40;100.00;98367.38;5132135;28;19934;-56
2022/06/18 03:59:28;;;;;;;;;;;;;;;21.56;100.00;98361.56;5132250;28;19931;-55
2022/06/18 04:01:55;;;;;;;;;;;;;;;21.75;100.00;98357.56;5132041;28;19928;-55
2022/06/18 04:04:21;;;;;;;;;;;;;;;22.27;100.00;98357.88;5131830;27;19934;-55
2022/06/18 04:06:47;;;;;;;;;;;;;;;22.41;100.00;98354.47;5131725;28;19927;-56
2022/06/18 04:09:13;;;;;;;;;;;;;;;22.30;100.00;98368.91;5132013;28;20329;-57
2022/06/18 04:11:39;;;;;;;;;;;;;;;22.45;100.00;98379.44;5131836;28;19938;-57
2022/06/18 04:14:05;;;;;;;;;;;;;;;22.61;100.00;98389.53;5131957;28;20398;-56
2022/06/18 04:16:32;;;;;;;;;;;;;;;22.71;100.00;98368.75;5132057;28;20267;-56
2022/06/18 04:18:58;;;;;;;;;;;;;;;22.90;100.00;98436.59;5131798;28;19932;-55
2022/06/18 04:21:24;;;;;;;;;;;;;;;22.60;100.00;98474.59;5132146;28;20381;-56
2022/06/18 04:23:50;;;;;;;;;;;;;;;22.99;100.00;98515.66;5131774;28;19934;-57
2022/06/18 04:26:16;;;;;;;;;;;;;;;22.87;100.00;98515.75;5132031;28;20364;-57
2022/06/18 04:28:42;;;;;;;;;;;;;;;23.04;100.00;98545.00;5131617;28;19928;-57
2022/06/18 04:31:08;;;;;;;;;;;;;;;23.30;100.00;98531.50;5131657;28;20318;-57
2022/06/18 04:33:34;;;;;;;;;;;;;;;22.46;100.00;98540.19;5131645;28;20014;-56
2022/06/18 04:36:00;;;;;;;;;;;;;;;22.08;100.00;98465.88;5131881;28;19938;-57
2022/06/18 04:38:26;;;;;;;;;;;;;;;22.51;100.00;98466.97;5131549;28;19934;-56
2022/06/18 04:40:52;;;;;;;;;;;;;;;22.86;100.00;98467.50;5131452;28;20314;-55
2022/06/18 04:43:18;;;;;;;;;;;;;;;23.56;100.00;98450.81;5131601;28;19971;-57
2022/06/18 04:45:44;;;;;;;;;;;;;;;23.72;100.00;98452.47;5131515;28;19927;-57
2022/06/18 04:48:13;;;;;;;;;;;;;;;23.91;100.00;98539.97;5131610;28;19949;-57
2022/06/18 04:50:39;;;;;;;;;;;;;;;24.18;100.00;98558.72;5131166;28;20030;-57
2022/06/18 04:53:06;;;;;;;;;;;;;;;24.50;100.00;98545.22;5131559;28;19928;-57
2022/06/18 04:55:33;;;;;;;;;;;;;;;24.84;100.00;98603.59;5131229;28;19927;-57
2022/06/18 04:57:59;;;;;;;;;;;;;;;24.94;100.00;98609.16;5131494;28;19948;-58
2022/06/18 05:00:25;;;;;;;;;;;;;;;25.00;100.00;98666.91;5131267;28;20372;-57
2022/06/18 05:02:51;;;;;;;;;;;;;;;24.25;100.00;98676.00;5131124;28;19934;-57
2022/06/18 05:05:21;;;;;;;;;;;;;;;24.19;100.00;98644.28;5131161;28;19928;-57
2022/06/18 05:07:47;;;;;;;;;;;;;;;24.18;100.00;98663.09;5131275;28;19927;-57
2022/06/18 05:10:13;;;;;;;;;;;;;;;24.50;100.00;98648.91;5131271;28;19928;-57
2022/06/18 05:12:40;;;;;;;;;;;;;;;24.48;100.00;98643.00;5130956;28;19931;-57
2022/06/18 05:15:06;;;;;;;;;;;;;;;24.38;100.00;98631.00;5131326;28;20028;-57
2022/06/18 05:17:34;;;;;;;;;;;;;;;24.65;100.00;98630.91;5132465;27;20462;-57
2022/06/18 05:20:00;;;;;;;;;;;;;;;24.89;100.00;98641.41;5135095;28;19935;-57
2022/06/18 05:22:28;;;;;;;;;;;;;;;25.51;100.00;98668.00;5134528;28;19996;-57
2022/06/18 05:24:53;;;;;;;;;;;;;;;25.42;100.00;98682.88;5134807;28;19931;-57
2022/06/18 05:27:22;;;;;;;;;;;;;;;25.64;100.00;98701.44;5134323;28;20405;-57
2022/06/18 05:29:48;;;;;;;;;;;;;;;25.97;100.00;98704.19;5134588;28;19927;-57
2022/06/18 05:32:14;;;;;;;;;;;;;;;26.34;100.00;98614.69;5134256;28;19934;-57
2022/06/18 05:34:40;;;;;;;;;;;;;;;26.45;100.00;98650.63;5134482;28;20416;-58
2022/06/18 05:37:08;;;;;;;;;;;;;;;26.51;100.00;98645.91;5134718;28;19973;-57
2022/06/18 05:39:35;;;;;;;;;;;;;;;26.59;100.00;98706.09;5134461;28;19927;-57
2022/06/18 05:42:01;;;;;;;;;;;;;;;27.26;100.00;98759.88;5134216;28;20423;-58
2022/06/18 05:44:27;;;;;;;;;;;;;;;27.10;100.00;98726.59;5134298;28;19927;-57
2022/06/18 05:46:53;;;;;;;;;;;;;;;27.49;100.00;98695.41;5134507;28;20463;-58
2022/06/18 05:49:19;;;;;;;;;;;;;;;27.30;100.00;98695.69;5134280;28;19954;-57
2022/06/18 05:51:45;;;;;;;;;;;;;;;26.97;100.00;98691.09;5134162;28;20302;-57
2022/06/18 05:54:11;;;;;;;;;;;;;;;27.88;100.00;98729.75;5133932;28;19931;-58
2022/06/18 05:56:37;;;;;;;;;;;;;;;27.76;100.00;98779.53;5134223;28;20518;-57
2022/06/18 05:59:03;;;;;;;;;;;;;;;27.94;100.00;98733.41;5133966;28;19928;-58
2022/06/18 06:01:29;;;;;;;;;;;;;;;27.90;100.00;98817.34;5134035;28;19933;-58
2022/06/18 06:03:56;;;;;;;;;;;;;;;28.09;100.00;98854.47;5134034;28;19927;-57
2022/06/18 06:06:22;;;;;;;;;;;;;;;28.26;100.00;98885.72;5133881;28;20476;-58
2022/06/18 06:08:48;;;;;;;;;;;;;;;28.46;100.00;98879.28;5134188;28;19931;-58
2022/06/18 06:11:29;;;;;;;;;;;;;;;28.35;100.00;98849.66;5133748;28;19933;-57
2022/06/18 06:13:56;;;;;;;;;;;;;;;28.36;100.00;98822.28;5134053;28;19927;-58
2022/06/18 06:16:22;;;;;;;;;;;;;;;28.70;100.00;98848.06;5133565;28;20022;-58
2022/06/18 06:18:49;;;;;;;;;;;;;;;28.63;100.00;98851.31;5134037;28;20026;-58
2022/06/18 06:21:15;;;;;;;;;;;;;;;28.83;100.00;98863.31;5133589;28;19927;-58
2022/06/18 06:23:41;;;;;;;;;;;;;;;28.98;100.00;98876.53;5133779;28;20034;-58
2022/06/18 06:26:14;;;;;;;;;;;;;;;29.23;100.00;98846.78;5133598;28;20026;-58
2022/06/18 06:28:43;;;;;;;;;;;;;;;29.07;100.00;98882.03;5133104;27;19979;-58
2022/06/18 06:31:10;;;;;;;;;;;;;;;29.39;100.00;98913.09;5133874;28;19937;-58
2022/06/18 06:33:36;;;;;;;;;;;;;;;29.13;100.00;98913.16;5133742;28;19976;-58
2022/06/18 06:36:02;;;;;;;;;;;;;;;29.28;100.00;98942.78;5133734;28;19927;-58
2022/06/18 06:38:28;;;;;;;;;;;;;;;29.21;100.00;98886.00;5133285;28;20034;-58
2022/06/18 06:40:54;;;;;;;;;;;;;;;29.63;100.00;98907.97;5133667;28;19932;-58
2022/06/18 06:43:21;;;;;;;;;;;;;;;29.32;100.00;98908.69;5133309;28;19927;-58
2022/06/18 06:45:47;;;;;;;;;;;;;;;29.40;100.00;98895.69;5133632;28;19927;-58
2022/06/18 06:48:13;;;;;;;;;;;;;;;29.64;100.00;98942.63;5133155;28;19934;-58
2022/06/18 06:50:39;;;;;;;;;;;;;;;29.87;100.00;98944.34;5133010;28;19927;-58
2022/06/18 06:53:05;;;;;;;;;;;;;;;29.59;100.00;98932.00;5133185;28;19932;-58
2022/06/18 06:58:17;;;;;;;;;;;;;;;29.76;100.00;98897.00;5133219;28;19973;-58
2022/06/18 07:00:44;;;;;;;;;;;;;;;30.24;100.00;98957.72;5132991;28;19931;-58
2022/06/18 07:03:11;;;;;;;;;;;;;;;30.49;100.00;98961.72;5133339;28;19934;-58
2022/06/18 07:05:37;;;;;;;;;;;;;;;30.48;93.53;98985.59;5132837;28;19931;-58
2022/06/18 07:08:03;;;;;;;;;;;;;;;30.03;95.19;98988.13;5133170;28;20030;-58
2022/06/18 07:10:29;;;;;;;;;;;;;;;29.82;94.94;98989.50;5132784;28;19934;-58
2022/06/18 07:12:55;;;;;;;;;;;;;;;30.09;94.98;98982.50;5133016;28;20306;-58
2022/06/18 07:15:21;;;;;;;;;;;;;;;30.13;100.00;98949.16;5132739;28;20352;-58
2022/06/18 07:17:47;;;;;;;;;;;;;;;30.27;100.00;98941.81;5132776;28;19928;-58
2022/06/18 07:20:14;;;;;;;;;;;;;;;31.05;100.00;98947.00;5132697;28;19934;-58
2022/06/18 07:22:41;;;;;;;;;;;;;;;30.81;100.00;98962.38;5132608;28;20010;-58
2022/06/18 07:25:08;;;;;;;;;;;;;;;29.72;88.80;99006.66;5132709;28;19928;-58
2022/06/18 07:27:33;;;;;;;;;;;;;;;30.98;92.98;98989.97;5132440;28;19934;-58
2022/06/18 07:29:59;;;;;;;;;;;;;;;31.39;96.10;98979.81;5133000;28;19927;-58
2022/06/18 07:32:25;;;;;;;;;;;;;;;31.19;96.98;98971.50;5132402;28;20301;-58
2022/06/18 07:34:53;;;;;;;;;;;;;;;31.13;100.00;98951.66;5133076;28;19934;-58
2022/06/18 07:37:19;;;;;;;;;;;;;;;31.41;97.79;98980.03;5132540;28;19928;-58
2022/06/18 07:39:46;;;;;;;;;;;;;;;31.22;90.69;99000.84;5132025;27;20256;-58
2022/06/18 07:42:13;;;;;;;;;;;;;;;30.95;86.73;99018.00;5132540;28;19927;-58
2022/06/18 07:44:39;;;;;;;;;;;;;;;30.84;100.00;98927.41;5133028;28;19931;-58
2022/06/18 07:47:05;;;;;;;;;;;;;;;31.04;87.29;99017.00;5132318;28;19933;-58
2022/06/18 07:49:31;;;;;;;;;;;;;;;30.12;85.36;99023.91;5132126;28;20374;-58
2022/06/18 07:51:57;;;;;;;;;;;;;;;30.44;92.96;98997.16;5132384;28;20018;-58
2022/06/18 07:54:23;;;;;;;;;;;;;;;30.46;90.22;99011.59;5132114;28;19934;-58
2022/06/18 07:56:50;;;;;;;;;;;;;;;30.44;94.61;98988.69;5132302;28;19952;-58
2022/06/18 07:59:16;;;;;;;;;;;;;;;31.09;97.62;98970.97;5132241;28;19927;-58
2022/06/18 08:01:42;;;;;;;;;;;;;;;31.05;100.00;98938.50;5132115;28;20402;-58
2022/06/18 08:04:08;;;;;;;;;;;;;;;31.39;94.07;98982.63;5132002;28;19934;-58
2022/06/18 08:06:34;;;;;;;;;;;;;;;31.13;91.86;98984.88;5132355;28;20294;-58
2022/06/18 08:09:00;;;;;;;;;;;;;;;30.53;93.26;98987.69;5131809;28;19928;-58
2022/06/18 08:11:28;;;;;;;;;;;;;;;29.60;98.98;98961.88;5132054;28;19972;-58
2022/06/18 08:13:56;;;;;;;;;;;;;;;30.76;97.06;98946.16;5131851;28;20022;-58
2022/06/18 08:16:21;;;;;;;;;;;;;;;31.33;94.37;98967.69;5131849;28;20402;-58
2022/06/18 08:18:48;;;;;;;;;;;;;;;31.32;96.71;98960.50;5131912;28;19934;-58
2022/06/18 08:21:16;;;;;;;;;;;;;;;31.33;97.59;98955.59;5131854;28;20411;-58
2022/06/18 08:23:42;;;;;;;;;;;;;;;31.90;98.63;98951.50;5131938;28;19982;-58
2022/06/18 08:26:09;;;;;;;;;;;;;;;31.87;91.42;98963.84;5130968;28;20467;-58
2022/06/18 08:28:35;;;;;;;;;;;;;;;31.12;100.00;98907.66;5131712;28;19928;-58
2022/06/18 08:31:03;;;;;;;;;;;;;;;31.59;94.83;98958.97;5131399;28;19976;-58
2022/06/18 08:33:29;;;;;;;;;;;;;;;31.35;99.60;98947.34;5131867;28;19939;-58
2022/06/18 08:35:55;;;;;;;;;;;;;;;31.13;100.00;98922.59;5131841;28;19950;-58
2022/06/18 08:38:21;;;;;;;;;;;;;;;31.38;100.00;98935.75;5131770;28;20308;-58
2022/06/18 08:40:59;;;;;;;;;;;;;;;31.61;97.77;98941.44;5131519;28;19927;-59
2022/06/18 08:43:40;;;;;;;;;;;;;;;31.29;100.00;98924.66;5131463;28;19975;-58
2022/06/18 08:46:12;;;;;;;;;;;;;;;31.50;97.59;98935.78;5131635;28;19949;-58
2022/06/18 08:48:55;;;;;;;;;;;;;;;31.35;92.04;98964.34;5131226;28;19927;-58
2022/06/18 08:51:27;;;;;;;;;;;;;;;31.37;99.27;98927.78;5069348;28;20390;-58
2022/06/18 08:54:01;;;;;;;;;;;;;;;31.55;100.00;98913.09;5126416;28;19927;-58
2022/06/18 08:56:33;;;;;;;;;;;;;;;31.74;96.29;98924.69;5131697;28;19934;-58
2022/06/18 08:59:02;;;;;;;;;;;;;;;31.78;99.83;98907.41;5131132;28;19938;-58
2022/06/18 09:01:32;;;;;;;;;;;;;;;32.28;100.00;98906.56;5131316;28;20358;-58
2022/06/18 09:04:09;;;;;;;;;;;;;;;31.95;95.88;98928.03;5131328;28;20457;-58
2022/06/18 09:06:40;;;;;;;;;;;;;;;31.96;100.00;98898.41;5131153;28;19950;-58
2022/06/18 09:09:11;;;;;;;;;;;;;;;32.11;97.22;98921.56;5131145;28;19932;-58
2022/06/18 09:11:51;;;;;;;;;;;;;;;32.08;96.58;98925.41;5131024;28;19927;-58
2022/06/18 09:14:21;;;;;;;;;;;;;;;30.97;95.99;98924.09;5131232;28;19979;-58
2022/06/18 09:16:51;;;;;;;;;;;;;;;31.31;93.24;98924.16;5130980;28;19931;-58
2022/06/18 09:19:18;;;;;;;;;;;;;;;31.26;94.72;98925.69;5130903;28;20279;-58
2022/06/18 09:21:49;;;;;;;;;;;;;;;31.36;100.00;98893.03;5131093;28;20283;-58
2022/06/18 09:24:19;;;;;;;;;;;;;;;31.77;100.00;98892.47;5130796;28;20034;-58
2022/06/18 09:26:47;;;;;;;;;;;;;;;31.78;100.00;98891.19;5131019;28;19927;-58
2022/06/18 09:29:16;;;;;;;;;;;;;;;31.71;96.59;98913.63;5130729;28;19934;-58
2022/06/18 09:31:44;;;;;;;;;;;;;;;31.92;100.00;98871.59;5130946;28;19928;-58
2022/06/18 09:34:14;;;;;;;;;;;;;;;32.39;100.00;98880.19;5130686;28;19931;-58
2022/06/18 09:36:42;;;;;;;;;;;;;;;31.58;95.67;98909.22;5131213;28;20496;-58
2022/06/18 09:39:11;;;;;;;;;;;;;;;31.33;100.00;98874.22;5130856;28;19928;-58
2022/06/18 09:41:39;;;;;;;;;;;;;;;31.20;100.00;98871.09;5130610;28;19927;-58
2022/06/18 09:44:11;;;;;;;;;;;;;;;29.83;100.00;98830.00;5130539;28;19927;-58
2022/06/18 09:46:40;;;;;;;;;;;;;;;29.65;100.00;98798.06;5130439;28;19928;-58
2022/06/18 09:49:06;;;;;;;;;;;;;;;29.84;100.00;98797.66;5130744;28;20021;-58
2022/06/18 09:51:36;;;;;;;;;;;;;;;29.02;100.00;98781.97;5130400;28;19981;-58
2022/06/18 09:54:04;;;;;;;;;;;;;;;29.07;100.00;98784.03;5130518;28;19927;-57
2022/06/18 09:56:32;;;;;;;;;;;;;;;29.50;100.00;98767.13;5130410;28;20305;-58
2022/06/18 09:58:59;;;;;;;;;;;;;;;29.69;100.00;98800.63;5130722;28;20522;-57
2022/06/18 10:01:27;;;;;;;;;;;;;;;30.18;100.00;98788.03;5130379;28;20310;-57
2022/06/18 10:06:55;;;;;;;;;;;;;;;30.70;100.00;98787.66;5134086;28;19934;-58
2022/06/18 10:09:24;;;;;;;;;;;;;;;30.64;100.00;98831.38;5134011;28;20313;-57
2022/06/18 10:11:50;;;;;;;;;;;;;;;30.20;100.00;98804.50;5133872;28;19927;-58
2022/06/18 10:14:19;;;;;;;;;;;;;;;30.35;100.00;98816.38;5134006;28;19971;-57
2022/06/18 10:16:51;;;;;;;;;;;;;;;29.41;100.00;98769.38;5134100;28;19928;-58
2022/06/18 10:19:23;;;;;;;;;;;;;;;29.49;100.00;98770.44;5133800;28;19927;-57
2022/06/18 10:21:55;;;;;;;;;;;;;;;28.73;100.00;98779.38;5134300;28;20400;-57
2022/06/18 10:24:27;;;;;;;;;;;;;;;28.45;100.00;98692.44;5133707;28;19927;-58
2022/06/18 10:27:00;;;;;;;;;;;;;;;28.59;100.00;98756.41;5133577;28;19932;-57
2022/06/18 10:29:32;;;;;;;;;;;;;;;28.45;100.00;98722.69;5133812;28;19927;-57
2022/06/18 10:32:08;;;;;;;;;;;;;;;28.01;100.00;98668.16;5133627;28;19927;-57
2022/06/18 10:34:45;;;;;;;;;;;;;;;28.63;100.00;98724.41;5133647;28;19927;-57
2022/06/18 10:37:16;;;;;;;;;;;;;;;28.48;100.00;98694.25;5133721;28;20018;-57
2022/06/18 10:39:47;;;;;;;;;;;;;;;28.52;100.00;98702.50;5133466;28;19975;-57
2022/06/18 10:42:21;;;;;;;;;;;;;;;28.48;100.00;98673.75;5133418;28;19927;-57
2022/06/18 10:44:55;;;;;;;;;;;;;;;28.17;100.00;98640.66;5133252;28;19932;-57
2022/06/18 10:47:21;;;;;;;;;;;;;;;28.00;100.00;98663.03;5133782;28;20305;-57
2022/06/18 10:49:58;;;;;;;;;;;;;;;27.84;100.00;98565.81;5133283;28;19934;-56
2022/06/18 10:52:25;;;;;;;;;;;;;;;27.28;100.00;98563.16;5133448;28;20374;-57
2022/06/18 10:55:03;;;;;;;;;;;;;;;26.74;100.00;98599.25;5133132;28;20022;-57
2022/06/18 10:57:29;;;;;;;;;;;;;;;26.37;100.00;98608.09;5133570;28;19953;-57
2022/06/18 10:59:55;;;;;;;;;;;;;;;26.55;100.00;98645.72;5133172;28;19927;-57
2022/06/18 11:02:33;;;;;;;;;;;;;;;26.77;100.00;98614.38;5133040;28;19931;-56
2022/06/18 11:05:02;;;;;;;;;;;;;;;26.70;100.00;98574.13;5132980;28;20317;-57
2022/06/18 11:07:30;;;;;;;;;;;;;;;26.21;100.00;98530.69;5132892;28;19935;-57
2022/06/18 11:09:58;;;;;;;;;;;;;;;26.05;100.00;98548.06;5133187;28;20305;-56
2022/06/18 11:12:27;;;;;;;;;;;;;;;25.65;100.00;98453.94;5132963;28;20071;-56
2022/06/18 11:14:53;;;;;;;;;;;;;;;26.00;100.00;98479.31;5131615;27;19931;-57
2022/06/18 11:17:19;;;;;;;;;;;;;;;25.99;100.00;98451.69;5133218;28;20431;-57
2022/06/18 11:19:48;;;;;;;;;;;;;;;26.26;100.00;98447.78;5133211;28;20025;-55
2022/06/18 11:22:17;;;;;;;;;;;;;;;26.23;100.00;98413.00;5132835;28;19959;-55
2022/06/18 11:24:44;;;;;;;;;;;;;;;26.23;100.00;98452.34;5132947;28;20477;-56
2022/06/18 11:27:13;;;;;;;;;;;;;;;26.62;100.00;98507.56;5132635;28;19928;-56
2022/06/18 11:29:41;;;;;;;;;;;;;;;26.81;100.00;98463.09;5132843;28;19931;-55
2022/06/18 11:32:09;;;;;;;;;;;;;;;26.65;100.00;98481.28;5132511;28;19934;-56
2022/06/18 11:34:37;;;;;;;;;;;;;;;26.56;100.00;98439.25;5132498;28;19927;-57
2022/06/18 11:37:12;;;;;;;;;;;;;;;26.42;100.00;98460.50;5132850;28;19927;-55
2022/06/18 11:39:39;;;;;;;;;;;;;;;25.75;100.00;98418.91;5132438;28;19981;-56
2022/06/18 11:42:09;;;;;;;;;;;;;;;25.87;100.00;98358.13;5132911;28;20378;-56
2022/06/18 11:44:39;;;;;;;;;;;;;;;25.52;100.00;98394.53;5132445;28;19928;-56
2022/06/18 11:47:09;;;;;;;;;;;;;;;25.58;100.00;98372.94;5132717;28;19927;-55
2022/06/18 11:49:37;;;;;;;;;;;;;;;25.34;100.00;98320.56;5132379;28;20014;-55
2022/06/18 11:52:08;;;;;;;;;;;;;;;24.97;100.00;98330.63;5132372;28;19931;-57
2022/06/18 11:54:37;;;;;;;;;;;;;;;24.86;100.00;98273.09;5132489;28;20279;-55
2022/06/18 11:57:05;;;;;;;;;;;;;;;24.93;100.00;98294.34;5132045;28;20428;-55
2022/06/18 11:59:36;;;;;;;;;;;;;;;25.21;100.00;98261.19;5132258;28;19932;-55
2022/06/18 12:02:04;;;;;;;;;;;;;;;25.59;100.00;98312.75;5132250;28;19928;-54
2022/06/18 12:04:33;;;;;;;;;;;;;;;25.02;100.00;98409.19;5132128;28;19927;-56
2022/06/18 12:07:02;;;;;;;;;;;;;;;25.23;100.00;98429.00;5131960;28;19932;-54
2022/06/18 12:09:28;;;;;;;;;;;;;;;25.92;100.00;98382.69;5132494;28;19934;-55
2022/06/18 12:12:12;;;;;;;;;;;;;;;25.73;100.00;98398.97;5131911;28;19979;-55
2022/06/18 12:14:42;;;;;;;;;;;;;;;25.32;100.00;98454.13;5131362;28;19953;-55
2022/06/18 12:17:13;;;;;;;;;;;;;;;24.98;100.00;98466.75;5132084;28;19931;-55
2022/06/18 12:19:42;;;;;;;;;;;;;;;25.17;100.00;98462.56;5131849;28;19938;-56
2022/06/18 12:22:11;;;;;;;;;;;;;;;25.20;100.00;98430.75;5132110;28;20391;-54
2022/06/18 12:24:40;;;;;;;;;;;;;;;25.77;100.00;98424.81;5131667;28;19927;-55
2022/06/18 12:27:08;;;;;;;;;;;;;;;25.70;100.00;98419.59;5131875;27;20296;-55
2022/06/18 12:29:45;;;;;;;;;;;;;;;25.50;100.00;98450.38;5131996;28;19927;-54
2022/06/18 12:32:24;;;;;;;;;;;;;;;25.57;100.00;98402.28;5131645;28;19971;-56
2022/06/18 12:34:56;;;;;;;;;;;;;;;25.60;100.00;98406.94;5131651;28;19934;-57
2022/06/18 12:37:25;;;;;;;;;;;;;;;25.85;100.00;98380.28;5131574;28;19956;-55
2022/06/18 12:39:54;;;;;;;;;;;;;;;25.67;100.00;98392.50;5131598;28;19927;-55
2022/06/18 12:42:23;;;;;;;;;;;;;;;25.77;100.00;98415.63;5131558;28;19931;-55
2022/06/18 12:44:52;;;;;;;;;;;;;;;25.65;100.00;98338.88;5131875;28;19932;-54
2022/06/18 12:47:22;;;;;;;;;;;;;;;25.76;100.00;98380.41;5131446;28;19976;-56
2022/06/18 12:49:55;;;;;;;;;;;;;;;25.62;100.00;98333.47;5131598;28;19928;-54
2022/06/18 12:52:24;;;;;;;;;;;;;;;25.18;100.00;98346.28;5131338;28;19927;-56